Time;durP1;ratioP1;P1;durP2;ratioP2;P2;SDS_P1;SDS_P2;PMS_P1;PMS_P2;Temp;Humidity;BMP_temperature;BMP_pressure;BME280_temperature;BME280_humidity;BME280_pressure;Samples;Min_cycle;Max_cycle;Signal;HPM_P1;HPM_P2
2021/09/05 00:02:18;;;;;;;0.00;0.00;;;19.80;68.50;;;;;;5023969;28;20231;-75
2021/09/05 00:04:46;;;;;;;0.10;0.10;;;19.80;68.60;;;;;;5023979;28;20215;-75
2021/09/05 00:07:13;;;;;;;0.30;0.30;;;19.70;68.60;;;;;;5023112;28;20731;-75
2021/09/05 00:09:41;;;;;;;0.07;0.07;;;19.70;68.60;;;;;;5021292;28;20573;-75
2021/09/05 00:12:10;;;;;;;0.10;0.10;;;19.60;68.40;;;;;;5024482;28;20227;-76
2021/09/05 00:14:37;;;;;;;0.00;0.00;;;19.60;68.30;;;;;;5021329;28;20224;-76
2021/09/05 00:17:04;;;;;;;0.00;0.00;;;19.60;68.30;;;;;;5024253;28;20223;-76
2021/09/05 00:19:31;;;;;;;0.10;0.10;;;19.60;68.30;;;;;;5022525;28;20726;-76
2021/09/05 00:21:58;;;;;;;0.20;0.20;;;19.60;68.20;;;;;;5023623;28;20234;-76
2021/09/05 00:24:25;;;;;;;0.00;0.00;;;19.70;68.10;;;;;;5022236;28;20218;-76
2021/09/05 00:26:52;;;;;;;0.00;0.00;;;19.70;67.90;;;;;;5023012;28;20211;-75
2021/09/05 00:29:19;;;;;;;0.00;0.00;;;19.70;67.80;;;;;;5024080;28;20211;-76
2021/09/05 00:31:46;;;;;;;0.10;0.10;;;19.70;67.70;;;;;;5025081;28;20221;-76
2021/09/05 00:34:14;;;;;;;0.00;0.00;;;19.70;67.50;;;;;;5033197;28;20269;-76
2021/09/05 00:36:40;;;;;;;0.00;0.00;;;19.70;67.40;;;;;;5024749;28;20224;-75
2021/09/05 00:39:08;;;;;;;0.07;0.07;;;19.70;67.30;;;;;;5023714;28;20266;-75
2021/09/05 00:41:35;;;;;;;0.10;0.10;;;19.70;67.30;;;;;;5027446;28;20243;-75
2021/09/05 00:44:08;;;;;;;0.00;0.00;;;19.70;67.20;;;;;;5021316;28;20238;-77
2021/09/05 00:46:36;;;;;;;0.00;0.00;;;19.70;67.10;;;;;;5024588;28;20215;-76
2021/09/05 00:49:05;;;;;;;0.10;0.10;;;19.70;66.90;;;;;;5024634;28;20204;-76
2021/09/05 00:51:34;;;;;;;0.00;0.00;;;19.80;66.80;;;;;;5024184;28;20807;-76
2021/09/05 00:54:05;;;;;;;0.07;0.07;;;19.80;66.60;;;;;;5023805;28;20582;-76
2021/09/05 00:56:35;;;;;;;0.10;0.10;;;19.80;66.50;;;;;;5031903;28;20269;-75
2021/09/05 00:59:07;;;;;;;0.00;0.00;;;19.70;66.40;;;;;;5013200;28;20246;-76
2021/09/05 01:01:36;;;;;;;0.00;0.00;;;19.70;66.20;;;;;;5012889;28;20231;-76
2021/09/05 01:04:04;;;;;;;0.00;0.00;;;19.80;66.20;;;;;;5024872;28;20226;-76
2021/09/05 01:06:36;;;;;;;0.73;0.73;;;19.80;66.90;;;;;;5021161;28;20219;-76
2021/09/05 01:09:04;;;;;;;0.10;0.10;;;19.70;66.10;;;;;;5015208;28;20216;-76
2021/09/05 01:11:34;;;;;;;0.27;0.27;;;19.70;66.20;;;;;;5020944;28;20227;-76
2021/09/05 01:14:06;;;;;;;0.10;0.10;;;19.60;66.30;;;;;;5024100;28;20215;-76
2021/09/05 01:16:36;;;;;;;0.00;0.00;;;19.50;66.40;;;;;;5022074;28;20628;-76
2021/09/05 01:19:07;;;;;;;0.80;0.80;;;19.50;66.60;;;;;;5024876;28;20219;-76
2021/09/05 01:21:36;;;;;;;0.10;0.10;;;19.50;66.70;;;;;;5024465;28;20240;-76
2021/09/05 01:24:05;;;;;;;0.30;0.30;;;19.50;66.80;;;;;;5024074;28;20210;-75
2021/09/05 01:26:34;;;;;;;0.10;0.10;;;19.40;66.80;;;;;;5019592;28;20212;-75
2021/09/05 01:29:03;;;;;;;0.00;0.00;;;19.40;67.00;;;;;;5023174;28;20211;-76
2021/09/05 01:31:44;;;;;;;0.10;0.10;;;19.40;67.00;;;;;;5020371;28;20224;-76
2021/09/05 01:34:14;;;;;;;0.20;0.20;;;19.30;67.10;;;;;;5021336;28;20207;-76
2021/09/05 01:36:42;;;;;;;0.10;0.10;;;19.20;67.30;;;;;;5019418;28;20227;-75
2021/09/05 01:39:12;;;;;;;0.10;0.10;;;19.20;67.40;;;;;;5021021;28;20270;-75
2021/09/05 01:41:40;;;;;;;0.20;0.20;;;19.10;67.60;;;;;;5024420;28;20227;-75
2021/09/05 01:44:12;;;;;;;0.00;0.00;;;19.00;67.70;;;;;;5021065;28;20231;-75
2021/09/05 01:46:39;;;;;;;0.00;0.00;;;18.90;67.80;;;;;;5020789;28;20246;-75
2021/09/05 01:49:08;;;;;;;5.63;2.00;;;18.90;67.90;;;;;;5023506;28;20219;-76
2021/09/05 01:51:35;;;;;;;0.43;0.43;;;18.80;67.90;;;;;;5020267;28;20219;-76
2021/09/05 01:54:03;;;;;;;0.30;0.30;;;18.80;68.10;;;;;;5023660;28;20206;-76
2021/09/05 01:56:31;;;;;;;0.10;0.10;;;18.80;68.10;;;;;;5018567;28;20640;-76
2021/09/05 01:58:59;;;;;;;0.10;0.10;;;18.70;68.00;;;;;;5023343;28;20249;-76
2021/09/05 02:01:29;;;;;;;0.10;0.10;;;18.80;68.10;;;;;;5020960;28;20266;-76
2021/09/05 02:03:57;;;;;;;0.00;0.00;;;18.80;68.10;;;;;;5021407;28;20484;-76
2021/09/05 02:06:27;;;;;;;0.83;0.83;;;18.70;68.00;;;;;;5022255;28;20660;-76
2021/09/05 02:08:57;;;;;;;1.50;1.00;;;18.70;68.10;;;;;;5020096;28;20216;-76
2021/09/05 02:11:25;;;;;;;0.10;0.10;;;18.70;68.10;;;;;;5022978;28;20219;-76
2021/09/05 02:13:53;;;;;;;0.20;0.20;;;18.70;68.20;;;;;;5024453;28;20226;-76
2021/09/05 02:16:21;;;;;;;0.10;0.10;;;18.60;68.20;;;;;;5022740;28;20249;-76
2021/09/05 02:18:49;;;;;;;0.10;0.10;;;18.60;68.20;;;;;;5020456;28;20235;-76
2021/09/05 02:21:16;;;;;;;0.03;0.03;;;18.60;68.20;;;;;;5022081;28;20288;-76
2021/09/05 02:23:43;;;;;;;0.00;0.00;;;18.60;68.20;;;;;;5021081;28;20208;-76
2021/09/05 02:26:10;;;;;;;0.10;0.10;;;18.60;68.10;;;;;;5020603;28;20215;-76
2021/09/05 02:28:37;;;;;;;0.10;0.10;;;18.50;68.00;;;;;;5021523;28;20211;-76
2021/09/05 02:31:04;;;;;;;1.23;0.53;;;18.50;68.30;;;;;;5019763;28;20219;-76
2021/09/05 02:33:31;;;;;;;0.30;0.30;;;18.40;68.40;;;;;;5022846;28;20255;-76
2021/09/05 02:35:58;;;;;;;0.10;0.10;;;18.30;68.70;;;;;;5019206;28;20227;-76
2021/09/05 02:38:25;;;;;;;0.10;0.10;;;18.20;68.90;;;;;;5022442;28;20776;-76
2021/09/05 02:40:52;;;;;;;0.37;0.37;;;18.20;69.00;;;;;;5020754;28;20216;-76
2021/09/05 02:43:19;;;;;;;0.10;0.10;;;18.10;69.00;;;;;;5022318;28;20261;-76
2021/09/05 02:45:46;;;;;;;0.10;0.10;;;18.10;69.00;;;;;;5020094;28;20211;-76
2021/09/05 02:48:13;;;;;;;0.10;0.10;;;18.20;69.10;;;;;;5021789;28;20219;-76
2021/09/05 02:50:40;;;;;;;0.00;0.00;;;18.10;69.00;;;;;;5020618;28;20270;-76
2021/09/05 02:53:08;;;;;;;0.10;0.10;;;18.20;69.10;;;;;;5022115;28;20211;-76
2021/09/05 02:55:35;;;;;;;0.00;0.00;;;18.10;69.00;;;;;;5023319;28;20215;-76
2021/09/05 02:58:02;;;;;;;0.00;0.00;;;18.10;69.00;;;;;;5020910;28;20216;-76
2021/09/05 03:00:29;;;;;;;0.10;0.10;;;18.10;69.10;;;;;;5019741;28;20628;-76
2021/09/05 03:02:57;;;;;;;0.03;0.03;;;18.10;69.10;;;;;;5023455;28;20327;-76
2021/09/05 03:05:24;;;;;;;0.10;0.10;;;18.10;69.10;;;;;;5027336;28;20308;-75
2021/09/05 03:07:51;;;;;;;0.27;0.27;;;18.10;69.10;;;;;;5022565;28;20218;-77
2021/09/05 03:10:19;;;;;;;0.77;0.77;;;18.10;69.10;;;;;;5026073;28;20242;-75
2021/09/05 03:12:46;;;;;;;0.10;0.10;;;18.00;69.10;;;;;;5023510;28;20228;-75
2021/09/05 03:15:15;;;;;;;0.10;0.10;;;18.00;69.10;;;;;;5025624;28;20561;-75
2021/09/05 03:17:42;;;;;;;0.00;0.00;;;18.00;69.10;;;;;;5024125;28;20227;-75
2021/09/05 03:20:10;;;;;;;0.10;0.10;;;18.00;69.10;;;;;;5025196;28;20218;-77
2021/09/05 03:22:37;;;;;;;0.10;0.10;;;18.00;69.20;;;;;;5024723;28;20302;-76
2021/09/05 03:25:05;;;;;;;0.10;0.10;;;18.00;69.10;;;;;;5024668;28;20219;-76
2021/09/05 03:27:33;;;;;;;0.00;0.00;;;18.00;69.20;;;;;;5024590;28;20269;-76
2021/09/05 03:30:00;;;;;;;0.20;0.20;;;18.00;69.30;;;;;;5023833;28;20212;-76
2021/09/05 03:32:27;;;;;;;0.10;0.10;;;17.90;69.30;;;;;;5025898;28;20268;-76
2021/09/05 03:34:54;;;;;;;0.10;0.10;;;17.90;69.40;;;;;;5022162;28;20215;-76
2021/09/05 03:37:21;;;;;;;0.00;0.00;;;17.90;69.50;;;;;;5021979;28;20215;-76
2021/09/05 03:39:48;;;;;;;0.37;0.37;;;17.80;69.50;;;;;;5023992;28;20239;-75
2021/09/05 03:42:15;;;;;;;0.20;0.20;;;17.80;69.60;;;;;;5024822;28;20231;-75
2021/09/05 03:44:43;;;;;;;0.50;0.50;;;17.80;69.70;;;;;;5023850;28;20219;-75
2021/09/05 03:47:09;;;;;;;0.00;0.00;;;17.80;69.80;;;;;;5025516;28;20215;-75
2021/09/05 03:49:36;;;;;;;0.43;0.43;;;17.70;69.80;;;;;;5024657;28;20208;-76
2021/09/05 03:52:04;;;;;;;0.10;0.10;;;17.70;69.90;;;;;;5023216;28;20211;-76
2021/09/05 03:54:31;;;;;;;0.00;0.00;;;17.70;70.00;;;;;;5026352;28;20219;-76
2021/09/05 03:56:59;;;;;;;0.57;0.57;;;17.70;70.00;;;;;;5024944;28;20230;-76
2021/09/05 03:59:26;;;;;;;0.10;0.10;;;17.70;70.00;;;;;;5022270;28;20220;-76
2021/09/05 04:01:54;;;;;;;0.37;0.37;;;17.70;70.10;;;;;;5025558;28;20264;-76
2021/09/05 04:04:22;;;;;;;0.10;0.10;;;17.60;70.10;;;;;;5022574;28;20278;-76
2021/09/05 04:06:59;;;;;;;0.10;0.10;;;17.60;70.20;;;;;;5022122;28;20216;-76
2021/09/05 04:12:16;;;;;;;0.10;0.10;;;17.60;70.50;;;;;;5023340;28;20216;-76
2021/09/05 04:14:44;;;;;;;0.00;0.00;;;17.60;70.50;;;;;;5025935;28;20231;-76
2021/09/05 04:17:11;;;;;;;0.30;0.30;;;17.50;70.50;;;;;;5023422;28;20211;-76
2021/09/05 04:19:38;;;;;;;0.00;0.00;;;17.50;70.60;;;;;;5023465;28;20281;-76
2021/09/05 04:22:05;;;;;;;0.10;0.10;;;17.50;70.70;;;;;;5021662;28;20247;-76
2021/09/05 04:24:32;;;;;;;0.10;0.10;;;17.50;70.80;;;;;;5025233;28;20215;-76
2021/09/05 04:26:59;;;;;;;0.10;0.10;;;17.50;70.90;;;;;;5021208;28;20215;-76
2021/09/05 04:29:26;;;;;;;0.10;0.10;;;17.50;70.90;;;;;;5025516;28;20272;-75
2021/09/05 04:31:54;;;;;;;0.23;0.23;;;17.50;70.90;;;;;;5020651;28;20281;-75
2021/09/05 04:34:22;;;;;;;0.00;0.00;;;17.50;70.90;;;;;;5025307;28;20241;-75
2021/09/05 04:36:49;;;;;;;0.07;0.07;;;17.50;70.90;;;;;;5021170;28;20636;-75
2021/09/05 04:39:16;;;;;;;0.10;0.10;;;17.50;70.90;;;;;;5021453;28;20251;-75
2021/09/05 04:41:43;;;;;;;0.03;0.03;;;17.60;70.90;;;;;;5022445;28;20625;-75
2021/09/05 04:44:10;;;;;;;0.10;0.10;;;17.60;70.80;;;;;;5023814;28;20266;-75
2021/09/05 04:46:37;;;;;;;0.10;0.10;;;17.60;70.60;;;;;;5022295;28;20219;-75
2021/09/05 04:49:04;;;;;;;0.10;0.10;;;17.60;70.50;;;;;;5022935;28;20215;-75
2021/09/05 04:51:31;;;;;;;0.63;0.37;;;17.70;70.50;;;;;;5023832;28;20208;-75
2021/09/05 04:53:58;;;;;;;0.00;0.00;;;17.60;70.40;;;;;;5024592;28;20199;-76
2021/09/05 04:56:25;;;;;;;0.00;0.00;;;17.70;70.50;;;;;;5021534;28;20227;-76
2021/09/05 04:58:54;;;;;;;0.07;0.07;;;17.70;70.50;;;;;;5024330;28;20218;-76
2021/09/05 05:01:21;;;;;;;0.03;0.03;;;17.70;70.50;;;;;;5021218;28;20211;-76
2021/09/05 05:03:48;;;;;;;0.27;0.27;;;17.70;70.40;;;;;;5024461;28;20675;-76
2021/09/05 05:06:37;;;;;;;0.60;0.60;;;17.80;70.50;;;;;;5023461;28;20580;-76
2021/09/05 05:09:04;;;;;;;0.10;0.10;;;17.80;70.30;;;;;;5025646;28;20264;-76
2021/09/05 05:11:32;;;;;;;0.00;0.00;;;17.80;70.20;;;;;;5029089;28;20679;-76
2021/09/05 05:13:59;;;;;;;0.00;0.00;;;17.80;70.10;;;;;;5021134;28;20211;-76
2021/09/05 05:16:26;;;;;;;0.00;0.00;;;17.80;70.10;;;;;;5023315;28;20218;-76
2021/09/05 05:18:53;;;;;;;0.10;0.10;;;17.90;70.10;;;;;;5020122;28;20230;-76
2021/09/05 05:21:20;;;;;;;0.03;0.03;;;18.00;70.00;;;;;;5022367;28;20219;-76
2021/09/05 05:23:47;;;;;;;0.10;0.10;;;18.20;69.80;;;;;;5022955;28;20246;-76
2021/09/05 05:26:14;;;;;;;0.63;0.63;;;18.40;69.50;;;;;;5021028;28;20211;-76
2021/09/05 05:28:41;;;;;;;0.20;0.20;;;18.60;69.00;;;;;;5022548;28;21062;-76
2021/09/05 05:31:08;;;;;;;0.10;0.10;;;18.90;68.60;;;;;;5021411;28;20219;-76
2021/09/05 05:33:35;;;;;;;0.10;0.10;;;19.10;67.90;;;;;;5024015;28;20361;-76
2021/09/05 05:36:03;;;;;;;0.10;0.10;;;19.20;67.40;;;;;;5019742;28;20226;-76
2021/09/05 05:38:30;;;;;;;0.10;0.10;;;19.30;67.20;;;;;;5012966;28;20561;-76
2021/09/05 05:40:57;;;;;;;0.10;0.10;;;19.40;67.00;;;;;;5024152;28;20322;-76
2021/09/05 05:43:24;;;;;;;0.20;0.20;;;19.50;66.90;;;;;;5023458;28;20287;-76
2021/09/05 05:45:52;;;;;;;0.00;0.00;;;19.60;66.70;;;;;;5021495;28;20226;-76
2021/09/05 05:48:19;;;;;;;0.23;0.23;;;19.70;66.40;;;;;;5023121;28;20603;-76
2021/09/05 05:50:47;;;;;;;0.00;0.00;;;19.80;66.30;;;;;;5021873;28;20627;-76
2021/09/05 05:53:15;;;;;;;0.00;0.00;;;19.90;66.00;;;;;;5021240;28;20595;-76
2021/09/05 05:55:42;;;;;;;0.10;0.10;;;20.00;65.70;;;;;;5023888;28;20647;-76
2021/09/05 05:58:09;;;;;;;0.10;0.10;;;20.10;65.50;;;;;;5023141;28;20227;-76
2021/09/05 06:00:38;;;;;;;0.20;0.20;;;20.30;65.30;;;;;;5020520;28;20648;-76
2021/09/05 06:03:07;;;;;;;0.10;0.10;;;20.40;65.20;;;;;;5023897;28;20230;-76
2021/09/05 06:05:35;;;;;;;1.07;0.97;;;20.60;65.00;;;;;;5020414;28;20238;-76
2021/09/05 06:08:03;;;;;;;0.10;0.10;;;20.80;64.60;;;;;;5023384;28;20223;-76
2021/09/05 06:10:31;;;;;;;1.60;0.57;;;21.00;64.00;;;;;;5027321;28;20639;-77
2021/09/05 06:12:59;;;;;;;0.30;0.30;;;21.30;63.40;;;;;;5021933;28;20441;-77
2021/09/05 06:15:26;;;;;;;0.10;0.10;;;21.40;63.00;;;;;;5021651;28;20272;-77
2021/09/05 06:17:54;;;;;;;0.40;0.40;;;21.70;62.50;;;;;;5021429;28;20211;-77
2021/09/05 06:20:21;;;;;;;0.10;0.10;;;21.80;61.90;;;;;;5021165;28;20298;-76
2021/09/05 06:22:48;;;;;;;0.10;0.10;;;22.10;61.20;;;;;;5023126;28;20303;-76
2021/09/05 06:25:17;;;;;;;0.10;0.10;;;22.20;60.60;;;;;;5020230;28;20277;-76
2021/09/05 06:27:43;;;;;;;1.37;1.33;;;22.30;60.20;;;;;;5019831;28;20230;-76
2021/09/05 06:30:11;;;;;;;0.47;0.47;;;22.40;59.70;;;;;;5023419;28;20213;-76
2021/09/05 06:32:38;;;;;;;0.27;0.27;;;22.50;59.30;;;;;;5020435;28;20226;-76
2021/09/05 06:35:06;;;;;;;0.90;0.90;;;22.60;58.90;;;;;;5022948;28;20215;-76
2021/09/05 06:37:36;;;;;;;0.00;0.00;;;22.70;58.50;;;;;;5021544;28;20227;-78
2021/09/05 06:40:04;;;;;;;0.87;0.87;;;22.80;58.20;;;;;;5028035;28;20242;-77
2021/09/05 06:42:32;;;;;;;0.10;0.10;;;22.80;58.00;;;;;;5026336;28;20630;-77
2021/09/05 06:44:59;;;;;;;0.10;0.10;;;22.90;57.80;;;;;;5024685;28;20219;-76
2021/09/05 06:47:27;;;;;;;0.13;0.13;;;23.00;57.60;;;;;;5025845;28;20215;-76
2021/09/05 06:49:54;;;;;;;0.03;0.03;;;23.00;57.30;;;;;;5023866;28;20216;-76
2021/09/05 06:52:21;;;;;;;0.00;0.00;;;23.10;57.20;;;;;;5022423;28;20687;-76
2021/09/05 06:54:48;;;;;;;1.50;0.97;;;23.10;57.00;;;;;;5027545;28;20423;-76
2021/09/05 06:57:16;;;;;;;2.13;1.43;;;23.20;56.50;;;;;;5026377;28;20253;-76
2021/09/05 06:59:42;;;;;;;0.10;0.10;;;23.20;56.30;;;;;;5024888;28;20655;-76
2021/09/05 07:02:09;;;;;;;0.43;0.43;;;23.30;56.40;;;;;;5026147;28;20211;-76
2021/09/05 07:04:37;;;;;;;0.43;0.43;;;23.40;56.40;;;;;;5025412;28;20254;-77
2021/09/05 07:07:04;;;;;;;0.40;0.40;;;23.50;56.30;;;;;;5024204;28;20250;-77
2021/09/05 07:09:31;;;;;;;0.33;0.33;;;23.60;56.10;;;;;;5029569;28;20215;-77
2021/09/05 07:11:58;;;;;;;0.30;0.30;;;23.60;55.90;;;;;;5024602;28;20226;-77
2021/09/05 07:14:25;;;;;;;0.00;0.00;;;23.70;55.90;;;;;;5024346;28;20216;-77
2021/09/05 07:16:52;;;;;;;0.10;0.10;;;23.80;55.80;;;;;;5035986;28;20211;-77
2021/09/05 07:19:20;;;;;;;0.20;0.20;;;23.80;55.50;;;;;;5023702;28;20218;-77
2021/09/05 07:21:48;;;;;;;0.83;0.83;;;23.90;55.40;;;;;;5022015;28;20215;-77
2021/09/05 07:24:14;;;;;;;0.10;0.10;;;24.00;55.20;;;;;;5026689;28;20661;-77
2021/09/05 07:26:42;;;;;;;0.00;0.00;;;24.10;55.20;;;;;;5023653;28;20208;-77
2021/09/05 07:29:10;;;;;;;0.10;0.10;;;24.20;55.00;;;;;;5025174;28;20215;-77
2021/09/05 07:31:37;;;;;;;0.30;0.30;;;24.30;54.60;;;;;;5024380;28;20216;-76
2021/09/05 07:34:04;;;;;;;2.93;1.50;;;24.40;54.60;;;;;;5025026;28;20215;-76
2021/09/05 07:36:33;;;;;;;0.97;0.97;;;24.60;54.60;;;;;;5024740;28;20531;-76
2021/09/05 07:39:00;;;;;;;0.10;0.10;;;24.70;54.70;;;;;;5027495;28;20242;-76
2021/09/05 07:41:27;;;;;;;0.50;0.50;;;24.90;54.40;;;;;;5024277;28;20222;-76
2021/09/05 07:43:55;;;;;;;0.10;0.10;;;25.10;54.30;;;;;;5026273;28;20301;-76
2021/09/05 07:46:22;;;;;;;0.20;0.20;;;25.30;54.10;;;;;;5022648;28;20223;-76
2021/09/05 07:48:49;;;;;;;0.10;0.10;;;25.50;53.90;;;;;;5026605;28;20215;-76
2021/09/05 07:51:17;;;;;;;0.20;0.20;;;25.60;53.50;;;;;;5022732;28;20239;-76
2021/09/05 07:53:44;;;;;;;2.30;1.77;;;25.80;53.30;;;;;;5025434;28;20259;-76
2021/09/05 07:56:11;;;;;;;0.53;0.53;;;25.90;52.90;;;;;;5024226;28;20635;-76
2021/09/05 07:58:39;;;;;;;0.13;0.13;;;25.90;52.30;;;;;;5024019;28;20586;-76
2021/09/05 08:01:06;;;;;;;0.00;0.00;;;26.00;52.40;;;;;;5024295;28;20215;-77
2021/09/05 08:03:39;;;;;;;0.53;0.47;;;26.20;52.30;;;;;;5024325;28;20267;-77
2021/09/05 08:06:07;;;;;;;1.27;1.27;;;26.40;52.00;;;;;;5022759;28;20250;-77
2021/09/05 08:08:37;;;;;;;0.10;0.10;;;26.50;51.30;;;;;;5024148;28;20242;-77
2021/09/05 08:11:05;;;;;;;0.30;0.30;;;26.60;51.00;;;;;;5022738;28;20226;-77
2021/09/05 08:13:32;;;;;;;0.10;0.10;;;26.60;51.00;;;;;;5025542;28;20288;-77
2021/09/05 08:16:01;;;;;;;0.00;0.00;;;26.80;50.70;;;;;;5023194;28;20246;-76
2021/09/05 08:18:29;;;;;;;0.60;0.60;;;26.80;50.70;;;;;;5024413;28;20222;-77
2021/09/05 08:20:57;;;;;;;0.13;0.13;;;26.80;50.30;;;;;;5024019;28;20254;-77
2021/09/05 08:23:25;;;;;;;0.40;0.40;;;26.90;50.20;;;;;;5023294;28;20325;-76
2021/09/05 08:25:52;;;;;;;0.10;0.10;;;27.10;50.30;;;;;;5024012;28;20233;-76
2021/09/05 08:28:19;;;;;;;0.20;0.20;;;27.40;50.20;;;;;;5021655;28;20211;-76
2021/09/05 08:30:48;;;;;;;0.97;0.93;;;27.70;49.90;;;;;;5025405;28;20217;-76
2021/09/05 08:33:19;;;;;;;0.10;0.10;;;28.00;49.60;;;;;;5022648;28;20627;-77
2021/09/05 08:35:47;;;;;;;0.40;0.40;;;28.20;48.80;;;;;;5024395;28;20219;-77
2021/09/05 08:38:15;;;;;;;0.97;0.90;;;28.40;48.50;;;;;;5023173;28;20726;-77
2021/09/05 08:40:47;;;;;;;0.10;0.10;;;28.40;47.90;;;;;;5035420;28;20222;-77
2021/09/05 08:43:16;;;;;;;0.10;0.10;;;28.40;47.50;;;;;;5025630;28;20547;-77
2021/09/05 08:45:45;;;;;;;0.10;0.10;;;28.40;47.50;;;;;;5022552;28;20211;-76
2021/09/05 08:48:14;;;;;;;0.50;0.50;;;28.50;47.70;;;;;;5013880;28;20212;-77
2021/09/05 08:50:42;;;;;;;0.10;0.10;;;28.60;47.30;;;;;;5013340;28;20610;-76
2021/09/05 08:53:09;;;;;;;0.20;0.20;;;28.70;46.70;;;;;;5018172;28;20215;-77
2021/09/05 08:55:36;;;;;;;0.20;0.20;;;28.70;46.40;;;;;;5024926;28;20214;-76
2021/09/05 08:58:04;;;;;;;0.30;0.30;;;28.60;46.30;;;;;;5022431;28;20224;-77
2021/09/05 09:00:34;;;;;;;0.30;0.30;;;28.60;46.50;;;;;;5022657;28;20223;-77
2021/09/05 09:03:01;;;;;;;0.10;0.10;;;28.50;46.20;;;;;;5024064;28;20239;-77
2021/09/05 09:05:36;;;;;;;0.10;0.10;;;28.50;46.80;;;;;;5019518;28;20741;-77
2021/09/05 09:08:11;;;;;;;0.17;0.17;;;28.60;46.60;;;;;;5021743;28;20573;-77
2021/09/05 09:10:54;;;;;;;0.10;0.10;;;28.70;46.50;;;;;;5029498;28;20214;-77
2021/09/05 09:13:32;;;;;;;0.40;0.40;;;28.90;46.20;;;;;;5025937;28;20378;-77
2021/09/05 09:16:10;;;;;;;0.10;0.10;;;29.10;46.20;;;;;;5022493;28;20210;-76
2021/09/05 09:18:43;;;;;;;0.10;0.10;;;29.30;45.10;;;;;;5021007;28;20216;-76
2021/09/05 09:21:15;;;;;;;0.00;0.00;;;29.30;44.80;;;;;;5023082;28;20551;-77
2021/09/05 09:23:42;;;;;;;0.00;0.00;;;29.40;45.30;;;;;;5023335;28;20564;-77
2021/09/05 09:26:11;;;;;;;0.00;0.00;;;29.60;44.80;;;;;;5029006;28;20599;-77
2021/09/05 09:28:47;;;;;;;0.30;0.30;;;29.70;44.60;;;;;;5021413;28;20421;-77
2021/09/05 09:31:14;;;;;;;0.17;0.17;;;29.70;42.60;;;;;;5025881;28;20582;-77
2021/09/05 09:33:44;;;;;;;0.40;0.40;;;29.60;43.50;;;;;;5022336;28;20246;-77
2021/09/05 09:36:15;;;;;;;0.00;0.00;;;29.60;43.30;;;;;;5021949;28;20224;-76
2021/09/05 09:38:43;;;;;;;0.10;0.10;;;29.70;43.00;;;;;;5025597;28;20250;-76
2021/09/05 09:41:17;;;;;;;0.33;0.33;;;29.80;42.70;;;;;;5031723;28;20204;-76
2021/09/05 09:43:52;;;;;;;0.00;0.00;;;29.90;42.90;;;;;;5023926;28;20238;-76
2021/09/05 09:46:22;;;;;;;0.10;0.10;;;30.10;43.20;;;;;;5021093;28;20272;-76
2021/09/05 09:48:52;;;;;;;0.10;0.10;;;30.20;42.40;;;;;;5021773;28;20215;-76
2021/09/05 09:51:20;;;;;;;0.10;0.10;;;30.20;42.60;;;;;;5023424;28;20219;-76
2021/09/05 09:53:48;;;;;;;0.00;0.00;;;30.20;42.90;;;;;;5022927;28;20223;-76
2021/09/05 09:56:17;;;;;;;0.10;0.10;;;30.20;42.40;;;;;;5012180;28;20308;-76
2021/09/05 09:58:45;;;;;;;0.10;0.10;;;30.10;42.60;;;;;;5012346;28;20636;-76
2021/09/05 10:01:24;;;;;;;0.03;0.03;;;30.20;42.10;;;;;;5016528;28;20706;-76
2021/09/05 10:03:54;;;;;;;0.10;0.10;;;30.20;41.60;;;;;;5012171;28;20235;-77
2021/09/05 10:06:26;;;;;;;0.10;0.10;;;30.20;41.60;;;;;;5012112;28;20242;-76
2021/09/05 10:08:55;;;;;;;0.20;0.20;;;30.30;40.80;;;;;;5026354;28;20214;-77
2021/09/05 10:11:23;;;;;;;0.20;0.20;;;30.30;41.20;;;;;;5022546;28;20619;-76
2021/09/05 10:13:50;;;;;;;0.60;0.60;;;30.40;40.80;;;;;;5021843;28;20640;-77
2021/09/05 10:16:18;;;;;;;0.00;0.00;;;30.40;41.00;;;;;;5020980;28;20230;-77
2021/09/05 10:18:48;;;;;;;0.80;0.27;;;30.50;41.30;;;;;;5022475;28;20227;-77
2021/09/05 10:21:18;;;;;;;0.00;0.00;;;30.50;40.80;;;;;;5020649;28;20258;-77
2021/09/05 10:23:54;;;;;;;0.20;0.20;;;30.50;40.80;;;;;;5024022;28;20659;-77
2021/09/05 10:26:23;;;;;;;0.13;0.13;;;30.60;40.50;;;;;;5020292;28;20599;-77
2021/09/05 10:28:53;;;;;;;0.10;0.10;;;30.70;40.30;;;;;;5019958;28;20295;-77
2021/09/05 10:31:28;;;;;;;0.10;0.10;;;30.70;39.90;;;;;;5020793;28;20235;-77
2021/09/05 10:33:57;;;;;;;0.00;0.00;;;30.60;40.30;;;;;;5021124;28;20231;-77
2021/09/05 10:36:27;;;;;;;0.00;0.00;;;30.80;40.50;;;;;;5023705;28;20580;-77
2021/09/05 10:39:06;;;;;;;0.47;0.47;;;31.00;40.50;;;;;;5024397;28;20254;-76
2021/09/05 10:41:45;;;;;;;0.00;0.00;;;31.20;39.00;;;;;;5020734;28;20254;-76
2021/09/05 10:44:12;;;;;;;0.37;0.37;;;31.20;38.80;;;;;;5020993;28;20251;-76
2021/09/05 10:46:43;;;;;;;0.00;0.00;;;31.10;38.40;;;;;;5021876;28;20226;-77
2021/09/05 10:49:10;;;;;;;0.00;0.00;;;31.10;38.80;;;;;;5022383;28;20266;-76
2021/09/05 10:51:50;;;;;;;0.20;0.20;;;31.30;38.80;;;;;;5020613;28;20632;-77
2021/09/05 10:54:26;;;;;;;0.10;0.10;;;31.50;38.00;;;;;;5023971;28;20662;-77
2021/09/05 10:56:55;;;;;;;0.00;0.00;;;31.60;38.00;;;;;;5021708;28;20309;-77
2021/09/05 10:59:23;;;;;;;0.10;0.10;;;31.60;37.30;;;;;;5019813;28;20216;-77
2021/09/05 11:01:50;;;;;;;0.10;0.10;;;31.60;37.50;;;;;;5023173;28;20211;-77
2021/09/05 11:04:21;;;;;;;0.10;0.10;;;31.60;37.40;;;;;;5019571;28;20274;-77
2021/09/05 11:06:52;;;;;;;0.60;0.60;;;31.50;37.70;;;;;;5022580;28;20294;-76
2021/09/05 11:09:25;;;;;;;0.10;0.10;;;31.40;37.10;;;;;;5025065;28;20238;-76
2021/09/05 11:12:11;;;;;;;0.00;0.00;;;31.30;37.30;;;;;;5021873;28;20215;-76
2021/09/05 11:14:48;;;;;;;0.10;0.10;;;31.30;37.80;;;;;;5021496;28;20243;-76
2021/09/05 11:17:21;;;;;;;0.27;0.27;;;31.40;37.70;;;;;;5020114;28;20277;-76
2021/09/05 11:19:56;;;;;;;0.20;0.20;;;31.60;37.60;;;;;;5020476;28;20220;-76
2021/09/05 11:22:29;;;;;;;0.43;0.43;;;31.80;37.50;;;;;;5021783;28;20276;-76
2021/09/05 11:25:07;;;;;;;0.00;0.00;;;31.90;35.70;;;;;;5026411;28;20235;-76
2021/09/05 11:27:36;;;;;;;0.10;0.10;;;31.70;36.50;;;;;;5025425;28;20545;-76
2021/09/05 11:30:07;;;;;;;0.10;0.10;;;31.70;36.60;;;;;;5025596;28;20226;-76
2021/09/05 11:32:34;;;;;;;0.10;0.10;;;31.70;36.50;;;;;;5025506;28;20297;-76
2021/09/05 11:35:02;;;;;;;0.83;0.40;;;31.70;36.70;;;;;;5023306;28;20265;-76
2021/09/05 11:37:30;;;;;;;0.00;0.00;;;31.70;36.40;;;;;;5025914;28;20211;-76
2021/09/05 11:40:08;;;;;;;0.00;0.00;;;31.80;36.60;;;;;;5026434;28;20698;-76
2021/09/05 11:42:36;;;;;;;0.53;0.53;;;31.80;36.30;;;;;;5028540;28;20673;-77
2021/09/05 11:45:09;;;;;;;0.10;0.10;;;31.80;36.30;;;;;;5024000;28;20266;-76
2021/09/05 11:47:38;;;;;;;0.40;0.40;;;31.90;36.30;;;;;;5025439;28;20647;-76
2021/09/05 11:50:06;;;;;;;0.00;0.00;;;31.90;36.30;;;;;;5022166;28;20245;-76
2021/09/05 11:52:35;;;;;;;1.70;1.40;;;31.90;36.50;;;;;;5026260;28;20623;-77
2021/09/05 11:55:14;;;;;;;0.00;0.00;;;32.00;36.40;;;;;;5026664;28;20571;-77
2021/09/05 11:57:56;;;;;;;1.33;0.77;;;32.10;35.90;;;;;;5024036;28;20219;-77
2021/09/05 12:00:25;;;;;;;0.00;0.00;;;32.10;36.40;;;;;;5023441;28;20212;-77
2021/09/05 12:02:52;;;;;;;0.10;0.10;;;32.20;36.50;;;;;;5024881;28;20229;-77
2021/09/05 12:05:20;;;;;;;0.00;0.00;;;32.20;36.60;;;;;;5022946;28;20243;-77
2021/09/05 12:07:49;;;;;;;0.00;0.00;;;32.20;36.70;;;;;;5024105;28;20216;-77
2021/09/05 12:10:18;;;;;;;0.00;0.00;;;32.20;35.80;;;;;;5025334;28;20217;-76
2021/09/05 12:12:59;;;;;;;0.00;0.00;;;32.10;35.30;;;;;;5025528;28;20211;-76
2021/09/05 12:15:31;;;;;;;0.00;0.00;;;31.90;36.00;;;;;;5023497;28;20230;-76
2021/09/05 12:17:58;;;;;;;0.00;0.00;;;31.60;36.00;;;;;;5026101;28;20658;-76
2021/09/05 12:20:41;;;;;;;0.00;0.00;;;31.40;35.90;;;;;;5023211;28;20223;-76
2021/09/05 12:23:21;;;;;;;0.00;0.00;;;31.40;36.20;;;;;;5023496;28;20221;-76
2021/09/05 12:25:49;;;;;;;0.00;0.00;;;31.40;36.60;;;;;;5022269;28;20211;-76
2021/09/05 12:28:25;;;;;;;0.00;0.00;;;31.50;36.30;;;;;;5025998;28;20602;-76
2021/09/05 12:30:54;;;;;;;0.00;0.00;;;31.50;36.20;;;;;;5022669;28;20547;-76
2021/09/05 12:33:28;;;;;;;0.13;0.13;;;31.70;36.40;;;;;;5024682;28;20246;-76
2021/09/05 12:36:15;;;;;;;0.00;0.00;;;31.80;35.70;;;;;;5024771;28;20222;-76
2021/09/05 12:38:54;;;;;;;0.10;0.10;;;31.80;35.60;;;;;;5025826;28;20633;-77
2021/09/05 12:41:27;;;;;;;0.00;0.00;;;31.80;35.80;;;;;;5025042;28;20280;-76
2021/09/05 12:43:55;;;;;;;0.00;0.00;;;31.80;35.60;;;;;;5022820;28;20668;-76
2021/09/05 12:46:37;;;;;;;0.00;0.00;;;31.90;35.60;;;;;;5023361;28;20264;-76
2021/09/05 12:49:20;;;;;;;0.10;0.10;;;31.90;35.30;;;;;;5017788;28;20227;-76
2021/09/05 12:51:50;;;;;;;0.00;0.00;;;31.90;35.00;;;;;;5022359;28;20230;-76
2021/09/05 12:54:19;;;;;;;0.10;0.10;;;31.80;35.10;;;;;;5028044;28;20200;-76
2021/09/05 12:56:47;;;;;;;0.20;0.20;;;31.70;35.30;;;;;;5021118;28;20258;-76
2021/09/05 12:59:15;;;;;;;0.00;0.00;;;31.60;35.40;;;;;;5024063;28;20219;-76
2021/09/05 13:01:43;;;;;;;0.00;0.00;;;31.70;35.50;;;;;;5022027;28;20223;-76